createdAt,value
2018-07-19T00:01:12.452Z,29.20
2018-07-19T00:03:40.939Z,28.80
2018-07-19T00:06:09.504Z,28.90
2018-07-19T00:08:37.983Z,28.80
2018-07-19T00:11:06.404Z,29.40
2018-07-19T00:13:34.742Z,29.00
2018-07-19T00:16:03.060Z,29.10
2018-07-19T00:18:31.478Z,29.10
2018-07-19T00:20:59.831Z,29.20
2018-07-19T00:26:00.748Z,29.30
2018-07-19T00:28:29.282Z,29.30
2018-07-19T00:30:57.637Z,29.30
2018-07-19T00:33:25.947Z,29.80
2018-07-19T00:35:54.219Z,29.40
2018-07-19T00:38:22.557Z,29.40
2018-07-19T00:40:50.843Z,29.40
2018-07-19T00:43:19.372Z,29.50
2018-07-19T00:45:48.179Z,29.50
2018-07-19T00:48:16.771Z,29.50
2018-07-19T00:50:45.103Z,29.50
2018-07-19T00:53:13.487Z,29.60
2018-07-19T00:55:42.074Z,29.70
2018-07-19T00:58:10.981Z,29.60
2018-07-19T01:00:39.412Z,29.70
2018-07-19T01:03:07.788Z,29.80
2018-07-19T01:05:36.085Z,29.90
2018-07-19T01:08:04.482Z,29.90
2018-07-19T01:10:33.385Z,30.00
2018-07-19T01:13:01.726Z,30.00
2018-07-19T01:15:30.046Z,30.10
2018-07-19T01:17:58.389Z,30.10
2018-07-19T01:20:26.687Z,30.20
2018-07-19T01:22:55.015Z,30.40
2018-07-19T01:25:23.384Z,30.40
2018-07-19T01:27:52.514Z,30.50
2018-07-19T01:30:20.876Z,30.70
2018-07-19T01:32:49.259Z,30.70
2018-07-19T01:35:17.888Z,30.80
2018-07-19T01:37:46.238Z,30.80
2018-07-19T01:40:14.627Z,30.90
2018-07-19T01:42:44.198Z,31.00
2018-07-19T01:45:13.491Z,31.00
2018-07-19T01:47:42.085Z,31.10
2018-07-19T01:50:11.132Z,31.10
2018-07-19T01:52:39.453Z,31.20
2018-07-19T01:55:08.413Z,31.30
2018-07-19T01:57:36.752Z,31.30
2018-07-19T02:00:05.776Z,31.40
2018-07-19T02:02:34.224Z,31.40
2018-07-19T02:05:02.600Z,31.40
2018-07-19T02:07:31.229Z,31.50
2018-07-19T02:09:59.630Z,31.50
2018-07-19T02:14:56.216Z,31.70
2018-07-19T02:17:24.553Z,31.70
2018-07-19T02:19:52.891Z,31.80
2018-07-19T02:22:21.213Z,32.00
2018-07-19T02:24:49.559Z,31.90
2018-07-19T02:27:17.952Z,32.10
2018-07-19T02:29:46.280Z,32.20
2018-07-19T02:32:14.687Z,32.20
2018-07-19T02:34:43.127Z,32.30
2018-07-19T02:37:11.437Z,32.40
2018-07-19T02:39:39.767Z,32.50
2018-07-19T02:42:08.254Z,32.50
2018-07-19T02:44:36.578Z,32.60
2018-07-19T02:47:04.918Z,32.70
2018-07-19T02:49:33.218Z,32.70
2018-07-19T02:52:01.541Z,32.80
2018-07-19T02:54:29.892Z,32.90
2018-07-19T02:56:58.464Z,33.00
2018-07-19T02:59:26.819Z,33.00
2018-07-19T03:01:55.125Z,33.10
2018-07-19T03:04:23.428Z,33.10
2018-07-19T03:06:51.872Z,33.20
2018-07-19T03:09:20.167Z,33.20
2018-07-19T03:11:48.576Z,33.40
2018-07-19T03:14:16.950Z,34.10
2018-07-19T03:16:45.288Z,33.50
2018-07-19T03:19:13.678Z,33.60
2018-07-19T03:21:42.896Z,33.70
2018-07-19T03:24:11.239Z,33.70
2018-07-19T03:26:39.567Z,33.70
2018-07-19T03:29:07.867Z,33.80
2018-07-19T03:31:36.214Z,33.90
2018-07-19T03:34:04.888Z,33.90
2018-07-19T03:36:33.240Z,34.00
2018-07-19T03:39:01.594Z,33.90
2018-07-19T03:41:29.963Z,34.00
2018-07-19T03:43:58.275Z,34.00
2018-07-19T03:46:26.593Z,34.00
2018-07-19T03:48:54.927Z,34.10
2018-07-19T03:51:23.296Z,34.10
2018-07-19T03:53:51.603Z,34.20
2018-07-19T03:56:19.992Z,34.20
2018-07-19T03:58:48.337Z,34.10
2018-07-19T04:01:16.752Z,34.20
2018-07-19T04:03:45.104Z,34.30
2018-07-19T04:06:13.540Z,34.50
2018-07-19T04:08:41.881Z,34.50
2018-07-19T04:11:10.298Z,34.50
2018-07-19T04:13:38.583Z,34.60
2018-07-19T04:16:06.963Z,34.60
2018-07-19T04:18:35.619Z,34.60
2018-07-19T04:21:04.028Z,34.60
2018-07-19T04:23:32.334Z,35.20
2018-07-19T04:26:00.658Z,34.80
2018-07-19T04:28:28.980Z,34.80
2018-07-19T04:30:57.319Z,34.80
2018-07-19T04:33:25.685Z,34.90
2018-07-19T04:35:54.014Z,34.90
2018-07-19T04:38:22.391Z,35.00
2018-07-19T04:40:50.684Z,35.00
2018-07-19T04:43:19.111Z,35.00
2018-07-19T04:45:47.557Z,35.00
2018-07-19T04:48:15.925Z,35.00
2018-07-19T04:50:44.249Z,35.00
2018-07-19T04:53:12.690Z,35.00
2018-07-19T04:55:41.191Z,35.00
2018-07-19T04:58:09.549Z,35.00
2018-07-19T05:00:37.949Z,34.90
2018-07-19T05:03:06.447Z,34.80
2018-07-19T05:05:34.793Z,34.90
2018-07-19T05:08:03.216Z,35.00
2018-07-19T05:10:31.575Z,34.90
2018-07-19T05:12:59.874Z,35.00
2018-07-19T05:15:28.254Z,35.00
2018-07-19T05:17:56.628Z,35.00
2018-07-19T05:20:31.575Z,35.10
2018-07-19T05:22:59.995Z,35.10
2018-07-19T05:27:56.452Z,35.40
2018-07-19T05:30:24.798Z,35.30
2018-07-19T05:32:53.149Z,35.50
2018-07-19T05:35:21.598Z,35.40
2018-07-19T05:37:49.926Z,35.50
2018-07-19T05:40:19.331Z,35.50
2018-07-19T05:42:47.707Z,35.50
2018-07-19T05:45:16.088Z,35.40
2018-07-19T05:47:44.551Z,35.30
2018-07-19T05:50:13.078Z,35.40
2018-07-19T05:52:41.757Z,35.30
2018-07-19T05:55:10.095Z,35.30
2018-07-19T05:57:38.987Z,35.30
2018-07-19T06:00:07.590Z,35.40
2018-07-19T06:02:35.975Z,35.10
2018-07-19T06:05:04.416Z,35.50
2018-07-19T06:07:32.761Z,35.50
2018-07-19T06:10:01.137Z,35.40
2018-07-19T06:12:29.459Z,35.40
2018-07-19T06:14:57.965Z,35.40
2018-07-19T06:17:26.299Z,35.40
2018-07-19T06:19:54.675Z,35.50
2018-07-19T06:22:23.218Z,35.40
2018-07-19T06:24:51.605Z,35.80
2018-07-19T06:27:22.977Z,36.00
2018-07-19T06:29:51.289Z,35.70
2018-07-19T06:32:19.665Z,35.60
2018-07-19T06:34:48.123Z,35.50
2018-07-19T06:37:16.589Z,35.60
2018-07-19T06:39:45.024Z,35.50
2018-07-19T06:42:13.386Z,35.60
2018-07-19T06:44:42.003Z,35.50
2018-07-19T06:47:10.546Z,35.60
2018-07-19T06:49:39.242Z,35.60
2018-07-19T06:52:07.879Z,35.50
2018-07-19T06:54:36.369Z,35.40
2018-07-19T06:57:04.704Z,35.50
2018-07-19T06:59:33.140Z,35.20
2018-07-19T07:02:01.451Z,35.30
2018-07-19T07:04:29.859Z,35.00
2018-07-19T07:06:58.183Z,34.90
2018-07-19T07:09:26.631Z,35.00
2018-07-19T07:11:54.943Z,35.00
2018-07-19T07:14:23.384Z,34.90
2018-07-19T07:16:51.911Z,34.70
2018-07-19T07:19:20.422Z,34.70
2018-07-19T07:21:48.835Z,34.50
2018-07-19T07:24:17.441Z,34.40
2018-07-19T07:26:45.986Z,34.20
2018-07-19T07:29:14.658Z,34.20
2018-07-19T07:31:43.502Z,33.90
2018-07-19T07:36:40.453Z,33.50
2018-07-19T07:39:09.812Z,33.20
2018-07-19T07:41:38.450Z,33.40
2018-07-19T07:44:06.996Z,33.20
2018-07-19T07:46:35.326Z,33.00
2018-07-19T07:49:03.683Z,32.90
2018-07-19T07:51:31.991Z,32.80
2018-07-19T07:54:00.322Z,32.80
2018-07-19T07:56:28.810Z,32.60
2018-07-19T07:58:57.155Z,32.60
2018-07-19T08:01:25.474Z,32.50
2018-07-19T08:03:53.969Z,32.40
2018-07-19T08:06:22.278Z,32.30
2018-07-19T08:08:50.610Z,32.20
2018-07-19T08:11:18.935Z,32.10
2018-07-19T08:13:47.291Z,32.00
2018-07-19T08:16:15.777Z,31.90
2018-07-19T08:18:44.274Z,31.70
2018-07-19T08:21:12.634Z,31.60
2018-07-19T08:23:41.067Z,31.20
2018-07-19T08:26:09.753Z,31.10
2018-07-19T08:28:38.053Z,30.80
2018-07-19T08:31:06.419Z,30.60
2018-07-19T08:36:03.326Z,30.80
2018-07-19T08:38:31.716Z,30.60
2018-07-19T08:41:00.062Z,31.00
2018-07-19T08:43:28.524Z,30.20
2018-07-19T08:45:56.995Z,30.00
2018-07-19T08:48:25.351Z,30.00
2018-07-19T08:50:53.643Z,30.00
2018-07-19T08:53:22.005Z,29.90
2018-07-19T08:55:50.442Z,29.60
2018-07-19T08:58:18.854Z,29.60
2018-07-19T09:00:47.276Z,29.60
2018-07-19T09:03:15.744Z,29.50
2018-07-19T09:05:44.275Z,29.40
2018-07-19T09:08:12.734Z,29.40
2018-07-19T09:10:41.455Z,29.00
2018-07-19T09:13:09.799Z,28.90
2018-07-19T09:15:44.876Z,28.80
2018-07-19T09:18:13.305Z,28.80
2018-07-19T09:20:41.718Z,28.40
2018-07-19T09:23:10.036Z,28.20
2018-07-19T09:25:38.667Z,28.00
2018-07-19T09:28:07.110Z,27.50
2018-07-19T09:30:36.618Z,27.30
2018-07-19T09:33:06.033Z,27.20
2018-07-19T09:35:35.758Z,26.80
2018-07-19T09:38:05.435Z,26.70
2018-07-19T09:40:34.035Z,26.40
2018-07-19T09:43:02.445Z,26.00
2018-07-19T09:45:30.827Z,25.90
2018-07-19T09:48:00.186Z,25.80
2018-07-19T09:50:29.496Z,25.60
2018-07-19T09:53:00.615Z,25.50
2018-07-19T09:55:31.254Z,25.10
2018-07-19T09:58:00.717Z,25.10
2018-07-19T10:00:35.478Z,24.90
2018-07-19T10:03:04.744Z,24.60
2018-07-19T10:05:33.247Z,24.40
2018-07-19T10:08:01.572Z,24.00
2018-07-19T10:10:29.914Z,23.80
2018-07-19T10:12:58.231Z,23.70
2018-07-19T10:15:26.594Z,23.70
2018-07-19T10:17:55.045Z,23.50
2018-07-19T10:20:23.431Z,23.40
2018-07-19T10:22:51.772Z,23.30
2018-07-19T10:25:20.108Z,22.90
2018-07-19T10:30:16.764Z,22.80
2018-07-19T10:32:45.252Z,22.90
2018-07-19T10:35:13.639Z,22.70
2018-07-19T10:37:42.134Z,22.70
2018-07-19T10:40:10.465Z,22.30
2018-07-19T10:42:38.917Z,22.30
2018-07-19T10:45:07.372Z,22.20
2018-07-19T10:47:35.719Z,21.80
2018-07-19T10:50:04.490Z,22.00
2018-07-19T10:52:32.879Z,22.10
2018-07-19T10:55:01.231Z,21.90
2018-07-19T10:57:29.603Z,21.90
2018-07-19T10:59:58.039Z,21.60
2018-07-19T11:02:26.331Z,21.50
2018-07-19T11:04:54.672Z,21.30
2018-07-19T11:07:22.991Z,21.10
2018-07-19T11:09:51.379Z,20.90
2018-07-19T11:12:19.660Z,21.20
2018-07-19T11:14:48.067Z,20.70
2018-07-19T11:19:44.638Z,20.70
2018-07-19T11:22:13.375Z,20.30
2018-07-19T11:24:41.683Z,20.50
2018-07-19T11:27:10.061Z,20.50
2018-07-19T11:29:38.547Z,20.50
2018-07-19T11:32:06.934Z,20.40
2018-07-19T11:34:35.429Z,20.30
2018-07-19T11:37:03.835Z,20.30
2018-07-19T11:39:32.126Z,20.10
2018-07-19T11:42:00.480Z,20.10
2018-07-19T11:44:28.886Z,20.10
2018-07-19T11:46:57.256Z,20.20
2018-07-19T11:49:25.603Z,20.20
2018-07-19T11:51:53.978Z,20.20
2018-07-19T11:54:22.340Z,20.10
2018-07-19T11:56:50.696Z,20.30
2018-07-19T11:59:19.060Z,20.30
2018-07-19T12:01:47.476Z,20.10
2018-07-19T12:04:15.918Z,20.10
2018-07-19T12:06:44.494Z,19.90
2018-07-19T12:09:13.035Z,19.80
2018-07-19T12:11:41.362Z,19.40
2018-07-19T12:14:09.732Z,19.10
2018-07-19T12:16:38.039Z,19.20
2018-07-19T12:19:06.363Z,19.20
2018-07-19T12:21:34.695Z,19.10
2018-07-19T12:24:03.019Z,18.60
2018-07-19T12:26:31.555Z,18.90
2018-07-19T12:29:00.160Z,18.90
2018-07-19T12:33:56.668Z,18.60
2018-07-19T12:36:25.106Z,18.30
2018-07-19T12:38:53.434Z,17.90
2018-07-19T12:41:21.774Z,18.10
2018-07-19T12:43:50.310Z,17.90
2018-07-19T12:46:18.933Z,17.20
2018-07-19T12:48:47.315Z,17.60
2018-07-19T12:51:15.711Z,16.90
2018-07-19T12:53:44.232Z,16.80
2018-07-19T12:56:12.723Z,16.60
2018-07-19T12:58:41.174Z,16.00
2018-07-19T13:01:09.823Z,16.30
2018-07-19T13:03:38.243Z,16.20
2018-07-19T13:06:06.663Z,15.80
2018-07-19T13:08:35.511Z,15.60
2018-07-19T13:11:03.964Z,15.60
2018-07-19T13:13:32.572Z,15.70
2018-07-19T13:16:00.888Z,15.50
2018-07-19T13:18:29.348Z,15.40
2018-07-19T13:20:57.868Z,15.40
2018-07-19T13:23:26.213Z,14.80
2018-07-19T13:25:54.547Z,14.20
2018-07-19T13:28:23.109Z,14.70
2018-07-19T13:30:51.415Z,14.30
2018-07-19T13:33:20.080Z,14.20
2018-07-19T13:38:16.825Z,13.70
2018-07-19T13:40:45.255Z,13.40
2018-07-19T13:43:13.763Z,13.70
2018-07-19T13:45:42.123Z,13.60
2018-07-19T13:48:10.507Z,13.40
2018-07-19T13:50:38.935Z,13.20
2018-07-19T13:54:14.864Z,13.40
2018-07-19T13:56:43.759Z,13.30
2018-07-19T13:59:12.384Z,12.70
2018-07-19T14:01:41.244Z,12.50
2018-07-19T14:04:09.914Z,12.40
2018-07-19T14:06:38.772Z,12.00
2018-07-19T14:09:09.369Z,12.20
2018-07-19T14:11:37.692Z,11.90
2018-07-19T14:14:06.169Z,11.60
2018-07-19T14:16:34.509Z,10.90
2018-07-19T14:19:02.883Z,11.70
2018-07-19T14:21:31.319Z,11.80
2018-07-19T14:23:59.852Z,11.40
2018-07-19T14:26:28.331Z,11.90
2018-07-19T14:28:56.752Z,11.70
2018-07-19T14:31:25.119Z,11.80
2018-07-19T14:33:53.578Z,12.10
2018-07-19T14:36:21.894Z,12.20
2018-07-19T14:38:50.248Z,12.90
2018-07-19T14:41:18.563Z,12.80
2018-07-19T14:43:47.252Z,12.30
2018-07-19T14:46:15.867Z,12.70
2018-07-19T14:48:44.292Z,12.80
2018-07-19T14:51:12.812Z,13.30
2018-07-19T14:53:41.347Z,12.80
2018-07-19T14:56:10.113Z,13.10
2018-07-19T14:58:38.532Z,13.60
2018-07-19T15:01:07.524Z,14.00
2018-07-19T15:03:35.935Z,13.60
2018-07-19T15:06:04.294Z,14.10
2018-07-19T15:08:32.744Z,14.90
2018-07-19T15:11:01.179Z,14.70
2018-07-19T15:13:29.697Z,15.70
2018-07-19T15:15:58.090Z,16.00
2018-07-19T15:18:26.702Z,16.30
2018-07-19T15:20:55.035Z,16.10
2018-07-19T15:23:23.579Z,16.90
2018-07-19T15:25:51.972Z,17.00
2018-07-19T15:28:20.547Z,16.90
2018-07-19T15:30:49.039Z,17.60
2018-07-19T15:33:17.443Z,17.90
2018-07-19T15:35:46.014Z,18.20
2018-07-19T15:38:14.504Z,18.50
2018-07-19T15:40:42.919Z,18.50
2018-07-19T15:43:11.843Z,18.90
2018-07-19T15:45:40.156Z,19.10
2018-07-19T15:48:08.616Z,19.30
2018-07-19T15:50:36.947Z,19.40
2018-07-19T15:53:05.528Z,19.60
2018-07-19T15:55:33.982Z,20.20
2018-07-19T15:58:02.251Z,19.80
2018-07-19T16:00:30.602Z,19.90
2018-07-19T16:02:59.057Z,20.10
2018-07-19T16:05:27.581Z,20.20
2018-07-19T16:07:56.148Z,19.60
2018-07-19T16:10:24.484Z,19.70
2018-07-19T16:12:52.799Z,20.20
2018-07-19T16:15:21.220Z,20.30
2018-07-19T16:17:49.762Z,20.50
2018-07-19T16:20:18.112Z,20.70
2018-07-19T16:22:46.530Z,20.60
2018-07-19T16:25:14.960Z,20.60
2018-07-19T16:27:43.415Z,20.70
2018-07-19T16:30:12.185Z,20.60
2018-07-19T16:32:40.569Z,20.80
2018-07-19T16:35:09.201Z,20.90
2018-07-19T16:37:37.667Z,21.00
2018-07-19T16:40:06.429Z,20.70
2018-07-19T16:42:34.783Z,20.90
2018-07-19T16:45:03.251Z,21.20
2018-07-19T16:47:31.578Z,20.10
2018-07-19T16:49:59.942Z,21.10
2018-07-19T16:52:28.301Z,20.60
2018-07-19T16:54:56.824Z,20.00
2018-07-19T16:57:25.153Z,20.80
2018-07-19T16:59:53.815Z,20.90
2018-07-19T17:02:22.303Z,21.10
2018-07-19T17:04:50.908Z,20.90
2018-07-19T17:07:19.267Z,20.60
2018-07-19T17:09:47.904Z,20.50
2018-07-19T17:12:16.329Z,20.60
2018-07-19T17:14:44.764Z,20.80
2018-07-19T17:17:13.348Z,21.10
2018-07-19T17:19:41.876Z,21.00
2018-07-19T17:22:10.290Z,20.80
2018-07-19T17:24:38.776Z,20.60
2018-07-19T17:27:07.267Z,20.40
2018-07-19T17:29:35.892Z,20.30
2018-07-19T17:32:04.423Z,20.50
2018-07-19T17:34:32.922Z,20.40
2018-07-19T17:37:01.265Z,20.60
2018-07-19T17:39:29.671Z,21.00
2018-07-19T17:41:58.207Z,20.50
2018-07-19T17:44:26.633Z,20.30
2018-07-19T17:49:23.033Z,20.90
2018-07-19T17:51:51.419Z,20.70
2018-07-19T17:54:19.825Z,21.10
2018-07-19T17:56:48.343Z,20.80
2018-07-19T18:01:45.048Z,20.30
2018-07-19T18:04:13.411Z,20.50
2018-07-19T18:06:41.905Z,20.30
2018-07-19T18:09:11.405Z,20.50
2018-07-19T18:11:40.515Z,20.40
2018-07-19T18:14:08.970Z,20.50
2018-07-19T18:16:37.421Z,20.70
2018-07-19T18:19:05.752Z,20.50
2018-07-19T18:21:34.126Z,20.50
2018-07-19T18:24:02.604Z,20.50
2018-07-19T18:26:31.088Z,20.60
2018-07-19T18:28:59.483Z,20.20
2018-07-19T18:31:27.871Z,20.60
2018-07-19T18:33:56.371Z,20.60
2018-07-19T18:36:25.724Z,20.80
2018-07-19T18:38:54.657Z,20.70
2018-07-19T18:41:23.276Z,20.70
2018-07-19T18:43:52.516Z,20.80
2018-07-19T18:46:20.920Z,20.90
2018-07-19T18:48:49.539Z,21.00
2018-07-19T18:51:18.594Z,21.00
2018-07-19T18:53:47.215Z,21.00
2018-07-19T18:56:16.305Z,21.00
2018-07-19T19:01:14.037Z,20.90
2018-07-19T19:03:42.749Z,20.90
2018-07-19T19:06:11.604Z,20.80
2018-07-19T19:08:40.102Z,20.80
2018-07-19T19:11:10.174Z,20.80
2018-07-19T19:13:38.869Z,21.00
2018-07-19T19:16:08.530Z,20.90
2018-07-19T19:18:38.012Z,20.90
2018-07-19T19:21:06.899Z,20.90
2018-07-19T19:23:35.423Z,21.00
2018-07-19T19:26:04.013Z,21.30
2018-07-19T19:28:32.634Z,21.60
2018-07-19T20:14:44.320Z,21.80
2018-07-19T20:17:13.225Z,26.10
2018-07-19T20:19:41.955Z,26.00
2018-07-19T20:22:10.783Z,25.80
2018-07-19T20:24:39.781Z,25.80
2018-07-19T20:27:08.353Z,25.50
2018-07-19T20:29:36.930Z,25.40
2018-07-19T20:32:05.485Z,25.30
2018-07-19T20:34:33.883Z,25.20
2018-07-19T20:37:02.533Z,25.10
2018-07-19T20:39:32.072Z,24.80
2018-07-19T20:42:00.632Z,24.80
2018-07-19T20:44:29.164Z,24.80
2018-07-19T20:46:58.439Z,24.80
2018-07-19T20:49:27.368Z,24.80
2018-07-19T20:51:56.243Z,24.80
2018-07-19T20:54:25.531Z,24.80
2018-07-19T20:56:55.151Z,24.80
2018-07-19T20:59:23.804Z,24.70
2018-07-19T21:01:52.972Z,24.60
2018-07-19T21:04:21.611Z,24.60
2018-07-19T21:06:50.362Z,24.70
2018-07-19T21:09:19.424Z,24.60
2018-07-19T21:11:49.562Z,24.70
2018-07-19T21:14:18.228Z,24.60
2018-07-19T21:16:46.646Z,24.70
2018-07-19T21:19:15.047Z,24.70
2018-07-19T21:21:43.408Z,24.70
2018-07-19T21:24:13.264Z,24.70
2018-07-19T21:26:42.591Z,24.60
2018-07-19T21:29:11.160Z,24.70
2018-07-19T21:31:39.709Z,24.80
2018-07-19T21:34:08.769Z,24.80
2018-07-19T21:36:37.299Z,24.90
2018-07-19T21:39:09.426Z,24.90
2018-07-19T21:41:38.317Z,25.00
2018-07-19T21:44:07.716Z,24.90
2018-07-19T21:46:36.324Z,24.90
2018-07-19T21:49:05.428Z,25.10
2018-07-19T21:51:34.192Z,25.30
2018-07-19T21:54:03.040Z,25.00
2018-07-19T21:56:32.095Z,25.10
2018-07-19T21:59:01.516Z,25.10
2018-07-19T22:01:29.983Z,25.00
2018-07-19T22:03:59.193Z,25.00
2018-07-19T22:08:56.405Z,25.00
2018-07-19T22:11:25.210Z,24.90
2018-07-19T22:13:53.852Z,24.90
2018-07-19T22:16:22.608Z,25.10
2018-07-19T22:18:51.279Z,25.00
2018-07-19T22:25:12.235Z,25.10
2018-07-19T22:27:40.754Z,25.00
2018-07-19T22:30:09.239Z,25.10
2018-07-19T22:32:37.843Z,25.10
2018-07-19T22:35:06.399Z,25.30
2018-07-19T22:37:34.722Z,25.20
2018-07-19T22:40:03.147Z,25.30
2018-07-19T22:42:32.165Z,25.10
2018-07-19T22:45:00.572Z,25.50
2018-07-19T22:47:29.009Z,25.40
2018-07-19T22:49:57.398Z,25.40
2018-07-19T22:52:25.772Z,25.50
2018-07-19T22:54:55.007Z,25.50
2018-07-19T22:59:51.578Z,25.70
2018-07-19T23:02:19.952Z,25.70
2018-07-19T23:04:48.229Z,25.70
2018-07-19T23:07:16.663Z,25.80
2018-07-19T23:09:45.293Z,25.70
2018-07-19T23:14:41.771Z,25.80
2018-07-19T23:17:10.161Z,25.90
2018-07-19T23:19:38.471Z,26.00
2018-07-19T23:22:06.813Z,26.00
2018-07-19T23:24:35.267Z,26.10
2018-07-19T23:27:03.693Z,26.10
2018-07-19T23:29:32.010Z,26.20
2018-07-19T23:32:01.552Z,26.00
2018-07-19T23:34:30.160Z,26.50
2018-07-19T23:37:32.603Z,26.50
2018-07-19T23:40:06.911Z,27.00
2018-07-19T23:42:39.017Z,26.70
2018-07-19T23:45:12.811Z,26.60
2018-07-19T23:47:42.565Z,26.80
2018-07-19T23:50:10.887Z,26.80
2018-07-19T23:52:39.192Z,26.90
2018-07-19T23:55:07.578Z,27.20
2018-07-19T23:57:35.966Z,27.30
